sensor_id;sensor_type;location;lat;lon;timestamp;pressure;altitude;pressure_sealevel;temperature;humidity
56330;BME280;42236;48.058;10.632;2023-09-19T00:02:36;94477.22;;;16.02;90.74
56330;BME280;42236;48.058;10.632;2023-09-19T00:05:22;94477.19;;;15.98;90.94
56330;BME280;42236;48.058;10.632;2023-09-19T00:08:09;94476.34;;;15.94;91.01
56330;BME280;42236;48.058;10.632;2023-09-19T00:10:55;94477.91;;;15.92;91.33
56330;BME280;42236;48.058;10.632;2023-09-19T00:13:40;94487.22;;;15.91;91.25
56330;BME280;42236;48.058;10.632;2023-09-19T00:16:26;94497.34;;;15.90;91.15
56330;BME280;42236;48.058;10.632;2023-09-19T00:19:12;94492.63;;;15.87;91.54
56330;BME280;42236;48.058;10.632;2023-09-19T00:21:58;94495.34;;;15.87;91.15
56330;BME280;42236;48.058;10.632;2023-09-19T00:24:44;94506.63;;;15.86;91.60
56330;BME280;42236;48.058;10.632;2023-09-19T00:27:29;94498.88;;;15.88;91.80
56330;BME280;42236;48.058;10.632;2023-09-19T00:30:15;94504.34;;;15.91;91.18
56330;BME280;42236;48.058;10.632;2023-09-19T00:33:02;94498.94;;;15.95;90.84
56330;BME280;42236;48.058;10.632;2023-09-19T00:35:52;94508.28;;;16.01;90.40
56330;BME280;42236;48.058;10.632;2023-09-19T00:38:38;94502.88;;;16.05;90.38
56330;BME280;42236;48.058;10.632;2023-09-19T00:41:24;94506.03;;;16.10;90.27
56330;BME280;42236;48.058;10.632;2023-09-19T00:44:10;94506.84;;;16.14;90.09
56330;BME280;42236;48.058;10.632;2023-09-19T00:46:56;94504.13;;;16.18;89.79
56330;BME280;42236;48.058;10.632;2023-09-19T00:49:42;94508.06;;;16.24;89.69
56330;BME280;42236;48.058;10.632;2023-09-19T00:52:27;94501.47;;;16.29;89.31
56330;BME280;42236;48.058;10.632;2023-09-19T00:55:13;94504.97;;;16.33;89.45
56330;BME280;42236;48.058;10.632;2023-09-19T00:58:00;94514.72;;;16.34;89.39
56330;BME280;42236;48.058;10.632;2023-09-19T01:00:49;94504.63;;;16.34;89.57
56330;BME280;42236;48.058;10.632;2023-09-19T01:03:36;94523.31;;;16.36;89.64
56330;BME280;42236;48.058;10.632;2023-09-19T01:06:22;94516.28;;;16.35;89.17
56330;BME280;42236;48.058;10.632;2023-09-19T01:09:08;94520.94;;;16.34;89.29
56330;BME280;42236;48.058;10.632;2023-09-19T01:11:58;94518.59;;;16.33;89.43
56330;BME280;42236;48.058;10.632;2023-09-19T01:14:54;94518.19;;;16.31;89.25
56330;BME280;42236;48.058;10.632;2023-09-19T01:17:53;94524.81;;;16.30;89.33
56330;BME280;42236;48.058;10.632;2023-09-19T01:30:19;94537.19;;;16.24;89.02
56330;BME280;42236;48.058;10.632;2023-09-19T01:33:07;94529.03;;;16.24;89.12
56330;BME280;42236;48.058;10.632;2023-09-19T01:35:53;94527.50;;;16.23;89.20
56330;BME280;42236;48.058;10.632;2023-09-19T01:38:43;94528.25;;;16.19;89.22
56330;BME280;42236;48.058;10.632;2023-09-19T01:41:35;94532.88;;;16.15;89.30
56330;BME280;42236;48.058;10.632;2023-09-19T01:44:54;94532.88;;;16.15;89.63
56330;BME280;42236;48.058;10.632;2023-09-19T01:47:49;94530.16;;;16.15;89.55
56330;BME280;42236;48.058;10.632;2023-09-19T01:50:48;94541.03;;;16.15;89.40
56330;BME280;42236;48.058;10.632;2023-09-19T01:53:44;94532.09;;;16.15;89.43
56330;BME280;42236;48.058;10.632;2023-09-19T01:59:45;94543.72;;;16.08;89.93
56330;BME280;42236;48.058;10.632;2023-09-19T02:02:38;94551.88;;;16.08;89.74
56330;BME280;42236;48.058;10.632;2023-09-19T02:05:25;94547.19;;;16.05;89.96
56330;BME280;42236;48.058;10.632;2023-09-19T02:08:16;94545.63;;;16.04;90.18
56330;BME280;42236;48.058;10.632;2023-09-19T02:11:02;94548.69;;;15.99;90.15
56330;BME280;42236;48.058;10.632;2023-09-19T02:13:48;94549.09;;;15.97;90.56
56330;BME280;42236;48.058;10.632;2023-09-19T02:16:39;94551.00;;;15.97;90.41
56330;BME280;42236;48.058;10.632;2023-09-19T02:19:25;94544.00;;;15.96;90.51
56330;BME280;42236;48.058;10.632;2023-09-19T02:22:11;94550.22;;;15.93;90.88
56330;BME280;42236;48.058;10.632;2023-09-19T02:24:57;94551.75;;;15.90;90.89
56330;BME280;42236;48.058;10.632;2023-09-19T02:27:46;94559.91;;;15.90;91.48
56330;BME280;42236;48.058;10.632;2023-09-19T02:30:32;94557.19;;;15.90;91.42
56330;BME280;42236;48.058;10.632;2023-09-19T02:33:17;94560.31;;;15.92;91.16
56330;BME280;42236;48.058;10.632;2023-09-19T02:36:04;94564.19;;;15.91;91.78
56330;BME280;42236;48.058;10.632;2023-09-19T02:38:50;94565.38;;;15.94;91.83
56330;BME280;42236;48.058;10.632;2023-09-19T02:41:36;94560.31;;;15.92;91.57
56330;BME280;42236;48.058;10.632;2023-09-19T02:44:22;94566.53;;;15.93;91.45
56330;BME280;42236;48.058;10.632;2023-09-19T02:47:09;94568.09;;;15.94;91.78
56330;BME280;42236;48.058;10.632;2023-09-19T02:49:54;94570.81;;;15.94;91.72
56330;BME280;42236;48.058;10.632;2023-09-19T02:52:44;94571.22;;;15.92;91.97
56330;BME280;42236;48.058;10.632;2023-09-19T02:55:30;94570.41;;;15.92;91.69
56330;BME280;42236;48.058;10.632;2023-09-19T02:58:17;94571.22;;;15.92;91.65
56330;BME280;42236;48.058;10.632;2023-09-19T03:01:10;94581.28;;;15.92;92.59
56330;BME280;42236;48.058;10.632;2023-09-19T03:03:57;94583.22;;;15.91;92.07
56330;BME280;42236;48.058;10.632;2023-09-19T03:06:43;94582.81;;;15.89;91.70
56330;BME280;42236;48.058;10.632;2023-09-19T03:09:30;94588.31;;;15.93;91.53
56330;BME280;42236;48.058;10.632;2023-09-19T03:12:15;94590.63;;;15.91;91.85
56330;BME280;42236;48.058;10.632;2023-09-19T03:15:02;94592.94;;;15.89;91.80
56330;BME280;42236;48.058;10.632;2023-09-19T03:17:49;94599.53;;;15.88;91.74
56330;BME280;42236;48.058;10.632;2023-09-19T03:20:35;94592.09;;;15.85;91.99
56330;BME280;42236;48.058;10.632;2023-09-19T03:23:22;94587.41;;;15.82;92.00
56330;BME280;42236;48.058;10.632;2023-09-19T03:26:07;94587.00;;;15.79;91.93
56330;BME280;42236;48.058;10.632;2023-09-19T03:28:53;94593.56;;;15.75;91.80
56330;BME280;42236;48.058;10.632;2023-09-19T03:31:39;94591.25;;;15.73;92.04
56330;BME280;42236;48.058;10.632;2023-09-19T03:34:25;94583.81;;;15.70;92.24
56330;BME280;42236;48.058;10.632;2023-09-19T03:37:10;94598.22;;;15.71;92.16
56330;BME280;42236;48.058;10.632;2023-09-19T03:39:56;94595.06;;;15.69;92.16
56330;BME280;42236;48.058;10.632;2023-09-19T03:42:42;94598.13;;;15.67;92.43
56330;BME280;42236;48.058;10.632;2023-09-19T03:45:27;94603.97;;;15.66;92.71
56330;BME280;42236;48.058;10.632;2023-09-19T03:48:13;94597.31;;;15.63;92.81
56330;BME280;42236;48.058;10.632;2023-09-19T03:50:59;94603.13;;;15.62;92.90
56330;BME280;42236;48.058;10.632;2023-09-19T03:53:44;94592.22;;;15.58;93.07
56330;BME280;42236;48.058;10.632;2023-09-19T03:56:30;94601.94;;;15.59;93.14
56330;BME280;42236;48.058;10.632;2023-09-19T03:59:16;94600.38;;;15.58;92.96
56330;BME280;42236;48.058;10.632;2023-09-19T04:02:04;94602.69;;;15.56;92.97
56330;BME280;42236;48.058;10.632;2023-09-19T04:04:53;94591.00;;;15.52;93.41
56330;BME280;42236;48.058;10.632;2023-09-19T04:07:39;94590.59;;;15.50;93.53
56330;BME280;42236;48.058;10.632;2023-09-19T04:10:24;94596.38;;;15.48;93.58
56330;BME280;42236;48.058;10.632;2023-09-19T04:13:10;94599.50;;;15.47;93.66
56330;BME280;42236;48.058;10.632;2023-09-19T04:15:56;94594.06;;;15.47;93.50
56330;BME280;42236;48.058;10.632;2023-09-19T04:18:42;94595.19;;;15.46;93.96
56330;BME280;42236;48.058;10.632;2023-09-19T04:21:27;94594.78;;;15.44;93.45
56330;BME280;42236;48.058;10.632;2023-09-19T04:24:14;94603.28;;;15.39;93.99
56330;BME280;42236;48.058;10.632;2023-09-19T04:27:00;94612.59;;;15.38;93.93
56330;BME280;42236;48.058;10.632;2023-09-19T04:29:46;94614.13;;;15.35;94.01
56330;BME280;42236;48.058;10.632;2023-09-19T04:32:31;94614.88;;;15.32;94.28
56330;BME280;42236;48.058;10.632;2023-09-19T04:35:18;94611.75;;;15.30;94.62
56330;BME280;42236;48.058;10.632;2023-09-19T04:38:03;94614.81;;;15.28;94.70
56330;BME280;42236;48.058;10.632;2023-09-19T04:40:56;94619.09;;;15.29;95.41
56330;BME280;42236;48.058;10.632;2023-09-19T04:43:42;94612.50;;;15.30;95.14
56330;BME280;42236;48.058;10.632;2023-09-19T04:46:28;94617.97;;;15.34;95.30
56330;BME280;42236;48.058;10.632;2023-09-19T04:49:13;94621.88;;;15.36;95.26
56330;BME280;42236;48.058;10.632;2023-09-19T04:51:59;94618.81;;;15.38;95.15
56330;BME280;42236;48.058;10.632;2023-09-19T04:54:45;94616.50;;;15.40;95.53
56330;BME280;42236;48.058;10.632;2023-09-19T04:57:31;94617.28;;;15.41;95.04
56330;BME280;42236;48.058;10.632;2023-09-19T05:00:18;94624.69;;;15.44;94.64
56330;BME280;42236;48.058;10.632;2023-09-19T05:03:04;94631.28;;;15.43;95.67
56330;BME280;42236;48.058;10.632;2023-09-19T05:05:54;94638.69;;;15.46;95.45
56330;BME280;42236;48.058;10.632;2023-09-19T05:08:39;94641.84;;;15.48;94.90
56330;BME280;42236;48.058;10.632;2023-09-19T05:11:26;94650.75;;;15.48;95.17
56330;BME280;42236;48.058;10.632;2023-09-19T05:14:12;94643.78;;;15.51;95.55
56330;BME280;42236;48.058;10.632;2023-09-19T05:16:57;94651.59;;;15.52;94.77
56330;BME280;42236;48.058;10.632;2023-09-19T05:19:43;94655.16;;;15.56;94.86
56330;BME280;42236;48.058;10.632;2023-09-19T05:22:29;94657.09;;;15.56;94.68
56330;BME280;42236;48.058;10.632;2023-09-19T05:25:15;94659.41;;;15.57;94.58
56330;BME280;42236;48.058;10.632;2023-09-19T05:28:03;94658.66;;;15.61;95.05
56330;BME280;42236;48.058;10.632;2023-09-19T05:30:49;94664.91;;;15.61;95.07
56330;BME280;42236;48.058;10.632;2023-09-19T05:33:35;94661.03;;;15.62;95.30
56330;BME280;42236;48.058;10.632;2023-09-19T05:36:21;94671.16;;;15.65;95.14
56330;BME280;42236;48.058;10.632;2023-09-19T05:39:06;94675.06;;;15.68;95.11
56330;BME280;42236;48.058;10.632;2023-09-19T05:41:54;94670.44;;;15.68;95.11
56330;BME280;42236;48.058;10.632;2023-09-19T05:44:42;94677.41;;;15.69;95.36
56330;BME280;42236;48.058;10.632;2023-09-19T05:47:28;94683.72;;;15.73;95.45
56330;BME280;42236;48.058;10.632;2023-09-19T05:50:14;94695.00;;;15.75;95.35
56330;BME280;42236;48.058;10.632;2023-09-19T05:53:02;94693.84;;;15.76;95.53
56330;BME280;42236;48.058;10.632;2023-09-19T05:55:47;94691.53;;;15.78;95.52
56330;BME280;42236;48.058;10.632;2023-09-19T05:58:35;94695.03;;;15.79;96.02
56330;BME280;42236;48.058;10.632;2023-09-19T06:01:20;94686.47;;;15.77;96.42
56330;BME280;42236;48.058;10.632;2023-09-19T06:04:06;94696.22;;;15.78;96.65
56330;BME280;42236;48.058;10.632;2023-09-19T06:06:52;94690.78;;;15.78;97.10
56330;BME280;42236;48.058;10.632;2023-09-19T06:09:37;94693.94;;;15.84;96.93
56330;BME280;42236;48.058;10.632;2023-09-19T06:12:24;94689.31;;;15.88;96.89
56330;BME280;42236;48.058;10.632;2023-09-19T06:15:10;94694.75;;;15.88;97.28
56330;BME280;42236;48.058;10.632;2023-09-19T06:18:00;94703.31;;;15.90;97.10
56330;BME280;42236;48.058;10.632;2023-09-19T06:20:48;94698.69;;;15.94;97.13
56330;BME280;42236;48.058;10.632;2023-09-19T06:23:36;94699.88;;;15.96;97.98
56330;BME280;42236;48.058;10.632;2023-09-19T06:26:22;94698.00;;;16.00;98.07
56330;BME280;42236;48.058;10.632;2023-09-19T06:29:08;94696.47;;;16.03;97.46
56330;BME280;42236;48.058;10.632;2023-09-19T06:31:55;94705.44;;;16.07;97.47
56330;BME280;42236;48.058;10.632;2023-09-19T06:34:41;94700.81;;;16.11;97.13
56330;BME280;42236;48.058;10.632;2023-09-19T06:37:29;94710.63;;;16.23;96.89
56330;BME280;42236;48.058;10.632;2023-09-19T06:40:15;94705.31;;;16.34;96.48
56330;BME280;42236;48.058;10.632;2023-09-19T06:43:01;94719.41;;;16.43;96.06
56330;BME280;42236;48.058;10.632;2023-09-19T06:45:49;94716.72;;;16.50;95.82
56330;BME280;42236;48.058;10.632;2023-09-19T06:48:37;94713.25;;;16.53;95.73
56330;BME280;42236;48.058;10.632;2023-09-19T06:51:23;94724.94;;;16.54;95.68
56330;BME280;42236;48.058;10.632;2023-09-19T06:54:08;94716.38;;;16.55;95.55
56330;BME280;42236;48.058;10.632;2023-09-19T06:56:54;94723.44;;;16.60;95.16
56330;BME280;42236;48.058;10.632;2023-09-19T06:59:40;94715.69;;;16.66;94.52
56330;BME280;42236;48.058;10.632;2023-09-19T07:02:26;94717.28;;;16.74;94.15
56330;BME280;42236;48.058;10.632;2023-09-19T07:05:12;94729.09;;;16.85;94.00
56330;BME280;42236;48.058;10.632;2023-09-19T07:07:59;94726.38;;;16.85;92.70
56330;BME280;42236;48.058;10.632;2023-09-19T07:10:46;94722.88;;;16.88;93.19
56330;BME280;42236;48.058;10.632;2023-09-19T07:13:34;94724.06;;;16.87;92.62
56330;BME280;42236;48.058;10.632;2023-09-19T07:16:21;94722.13;;;16.91;92.85
56330;BME280;42236;48.058;10.632;2023-09-19T07:19:15;94726.47;;;16.99;92.24
56330;BME280;42236;48.058;10.632;2023-09-19T07:22:01;94728.50;;;17.13;92.09
56330;BME280;42236;48.058;10.632;2023-09-19T07:24:48;94736.38;;;17.29;91.39
56330;BME280;42236;48.058;10.632;2023-09-19T07:27:34;94736.41;;;17.33;89.85
56330;BME280;42236;48.058;10.632;2023-09-19T07:30:20;94737.16;;;17.30;89.73
56330;BME280;42236;48.058;10.632;2023-09-19T07:33:06;94733.28;;;17.31;89.44
56330;BME280;42236;48.058;10.632;2023-09-19T07:35:51;94741.84;;;17.29;89.59
56330;BME280;42236;48.058;10.632;2023-09-19T07:38:37;94738.72;;;17.27;89.15
56330;BME280;42236;48.058;10.632;2023-09-19T07:41:24;94749.59;;;17.23;89.26
56330;BME280;42236;48.058;10.632;2023-09-19T07:44:09;94745.69;;;17.21;88.64
56330;BME280;42236;48.058;10.632;2023-09-19T07:46:55;94751.16;;;17.21;88.90
56330;BME280;42236;48.058;10.632;2023-09-19T07:49:42;94755.06;;;17.27;88.69
56330;BME280;42236;48.058;10.632;2023-09-19T07:52:29;94764.44;;;17.30;88.24
56330;BME280;42236;48.058;10.632;2023-09-19T07:55:14;94764.44;;;17.30;87.76
56330;BME280;42236;48.058;10.632;2023-09-19T07:58:05;94769.19;;;17.40;87.04
56330;BME280;42236;48.058;10.632;2023-09-19T08:00:52;94772.72;;;17.47;87.43
56330;BME280;42236;48.058;10.632;2023-09-19T08:03:38;94771.56;;;17.48;87.02
56330;BME280;42236;48.058;10.632;2023-09-19T08:06:26;94772.38;;;17.53;86.58
56330;BME280;42236;48.058;10.632;2023-09-19T08:09:14;94768.53;;;17.64;86.38
56330;BME280;42236;48.058;10.632;2023-09-19T08:12:07;94776.03;;;17.82;86.42
56330;BME280;42236;48.058;10.632;2023-09-19T08:14:56;94776.47;;;17.95;85.58
56330;BME280;42236;48.058;10.632;2023-09-19T08:17:42;94772.63;;;18.03;84.66
56330;BME280;42236;48.058;10.632;2023-09-19T08:20:28;94783.59;;;18.17;85.12
56330;BME280;42236;48.058;10.632;2023-09-19T08:23:13;94781.28;;;18.30;84.07
56330;BME280;42236;48.058;10.632;2023-09-19T08:25:59;94788.75;;;18.51;84.18
56330;BME280;42236;48.058;10.632;2023-09-19T08:28:48;94776.63;;;18.55;82.73
56330;BME280;42236;48.058;10.632;2023-09-19T08:31:34;94779.78;;;18.65;82.53
56330;BME280;42236;48.058;10.632;2023-09-19T08:34:19;94783.75;;;18.85;82.78
56330;BME280;42236;48.058;10.632;2023-09-19T08:37:06;94793.88;;;18.88;81.31
56330;BME280;42236;48.058;10.632;2023-09-19T08:39:52;94789.53;;;18.62;79.55
56330;BME280;42236;48.058;10.632;2023-09-19T08:42:52;94791.44;;;18.37;78.73
56330;BME280;42236;48.058;10.632;2023-09-19T08:45:38;94791.41;;;18.22;80.18
56330;BME280;42236;48.058;10.632;2023-09-19T08:48:29;94784.38;;;18.28;80.26
56330;BME280;42236;48.058;10.632;2023-09-19T08:51:24;94786.72;;;18.26;78.60
56330;BME280;42236;48.058;10.632;2023-09-19T08:54:35;94791.41;;;18.22;79.18
56330;BME280;42236;48.058;10.632;2023-09-19T08:57:23;94794.91;;;18.26;79.05
56330;BME280;42236;48.058;10.632;2023-09-19T09:00:10;94799.19;;;18.24;79.12
56330;BME280;42236;48.058;10.632;2023-09-19T09:02:58;94790.66;;;18.36;77.89
56330;BME280;42236;48.058;10.632;2023-09-19T09:05:46;94796.16;;;18.54;78.93
56330;BME280;42236;48.058;10.632;2023-09-19T09:08:33;94790.34;;;18.73;78.40
56330;BME280;42236;48.058;10.632;2023-09-19T09:11:19;94788.03;;;19.01;77.67
56330;BME280;42236;48.058;10.632;2023-09-19T09:14:06;94797.03;;;19.26;77.46
56330;BME280;42236;48.058;10.632;2023-09-19T09:16:52;94793.06;;;19.52;76.49
56330;BME280;42236;48.058;10.632;2023-09-19T09:19:42;94787.19;;;19.54;75.08
56330;BME280;42236;48.058;10.632;2023-09-19T09:22:28;94787.59;;;19.52;74.56
56330;BME280;42236;48.058;10.632;2023-09-19T09:25:14;94787.19;;;19.57;74.44
56330;BME280;42236;48.058;10.632;2023-09-19T09:28:01;94791.50;;;19.51;74.28
56330;BME280;42236;48.058;10.632;2023-09-19T09:30:48;94794.28;;;19.40;75.07
56330;BME280;42236;48.058;10.632;2023-09-19T09:33:35;94804.78;;;19.49;74.93
56330;BME280;42236;48.058;10.632;2023-09-19T09:36:34;94810.28;;;19.35;71.98
56330;BME280;42236;48.058;10.632;2023-09-19T09:39:31;94809.13;;;19.11;72.38
56330;BME280;42236;48.058;10.632;2023-09-19T09:42:43;94816.16;;;19.08;72.85
56330;BME280;42236;48.058;10.632;2023-09-19T09:45:32;94811.09;;;19.21;73.66
56330;BME280;42236;48.058;10.632;2023-09-19T09:48:24;94824.34;;;19.37;73.29
56330;BME280;42236;48.058;10.632;2023-09-19T09:51:29;94811.84;;;19.43;72.42
56330;BME280;42236;48.058;10.632;2023-09-19T09:54:17;94811.03;;;19.53;73.05
56330;BME280;42236;48.058;10.632;2023-09-19T09:57:05;94817.31;;;19.68;73.71
56330;BME280;42236;48.058;10.632;2023-09-19T10:00:12;94808.69;;;19.73;72.78
56330;BME280;42236;48.058;10.632;2023-09-19T10:02:57;94806.28;;;19.93;69.44
56330;BME280;42236;48.058;10.632;2023-09-19T10:05:44;94806.22;;;20.08;70.07
56330;BME280;42236;48.058;10.632;2023-09-19T10:08:30;94814.41;;;20.15;70.13
56330;BME280;42236;48.058;10.632;2023-09-19T10:11:16;94816.84;;;19.95;68.76
56330;BME280;42236;48.058;10.632;2023-09-19T10:14:04;94818.06;;;19.69;69.40
56330;BME280;42236;48.058;10.632;2023-09-19T10:16:53;94824.34;;;19.44;68.51
56330;BME280;42236;48.058;10.632;2023-09-19T10:19:46;94829.84;;;19.33;69.67
56330;BME280;42236;48.058;10.632;2023-09-19T10:22:36;94814.22;;;19.19;70.26
56330;BME280;42236;48.058;10.632;2023-09-19T10:25:26;94820.06;;;19.07;69.68
56330;BME280;42236;48.058;10.632;2023-09-19T10:28:15;94818.13;;;18.97;71.02
56330;BME280;42236;48.058;10.632;2023-09-19T10:31:01;94817.72;;;19.02;70.93
56330;BME280;42236;48.058;10.632;2023-09-19T10:33:49;94821.63;;;18.90;71.33
56330;BME280;42236;48.058;10.632;2023-09-19T10:36:36;94818.13;;;18.90;71.79
56330;BME280;42236;48.058;10.632;2023-09-19T10:39:23;94821.63;;;19.15;71.88
56330;BME280;42236;48.058;10.632;2023-09-19T10:42:11;94821.63;;;19.30;71.27
56330;BME280;42236;48.058;10.632;2023-09-19T10:45:02;94816.13;;;19.58;70.51
56330;BME280;42236;48.058;10.632;2023-09-19T10:47:52;94813.75;;;19.82;70.30
56330;BME280;42236;48.058;10.632;2023-09-19T10:50:45;94810.97;;;19.96;68.16
56330;BME280;42236;48.058;10.632;2023-09-19T10:53:53;94817.91;;;20.19;66.57
56330;BME280;42236;48.058;10.632;2023-09-19T10:56:46;94809.25;;;20.31;64.35
56330;BME280;42236;48.058;10.632;2023-09-19T10:59:34;94817.44;;;20.42;66.54
56330;BME280;42236;48.058;10.632;2023-09-19T11:02:20;94817.44;;;20.42;63.78
56330;BME280;42236;48.058;10.632;2023-09-19T11:05:12;94810.75;;;20.46;63.05
56330;BME280;42236;48.058;10.632;2023-09-19T11:07:59;94816.59;;;20.56;64.71
56330;BME280;42236;48.058;10.632;2023-09-19T11:10:50;94819.34;;;20.56;63.71
56330;BME280;42236;48.058;10.632;2023-09-19T11:13:36;94811.53;;;20.43;63.64
56330;BME280;42236;48.058;10.632;2023-09-19T11:16:23;94805.00;;;20.23;63.71
56330;BME280;42236;48.058;10.632;2023-09-19T11:19:09;94797.25;;;20.03;64.13
56330;BME280;42236;48.058;10.632;2023-09-19T11:21:56;94800.03;;;19.89;64.30
56330;BME280;42236;48.058;10.632;2023-09-19T11:24:42;94809.41;;;19.88;65.21
56330;BME280;42236;48.058;10.632;2023-09-19T11:27:28;94788.66;;;19.98;65.37
56330;BME280;42236;48.058;10.632;2023-09-19T11:30:25;94789.75;;;20.15;65.36
56330;BME280;42236;48.058;10.632;2023-09-19T11:36:09;94796.59;;;20.62;63.77
56330;BME280;42236;48.058;10.632;2023-09-19T11:38:57;94784.38;;;20.74;62.84
56330;BME280;42236;48.058;10.632;2023-09-19T11:41:43;94789.81;;;20.81;62.77
56330;BME280;42236;48.058;10.632;2023-09-19T11:44:33;94781.91;;;20.91;62.74
56330;BME280;42236;48.058;10.632;2023-09-19T11:47:20;94786.19;;;20.95;62.60
56330;BME280;42236;48.058;10.632;2023-09-19T11:50:07;94786.56;;;20.97;62.41
56330;BME280;42236;48.058;10.632;2023-09-19T11:52:57;94788.00;;;21.09;62.24
56330;BME280;42236;48.058;10.632;2023-09-19T11:55:43;94778.13;;;21.22;62.21
56330;BME280;42236;48.058;10.632;2023-09-19T11:58:30;94780.03;;;21.25;60.99
56330;BME280;42236;48.058;10.632;2023-09-19T12:01:22;94774.97;;;21.24;61.44
56330;BME280;42236;48.058;10.632;2023-09-19T12:04:11;94781.56;;;21.34;61.12
56330;BME280;42236;48.058;10.632;2023-09-19T12:06:57;94779.56;;;21.41;61.47
56330;BME280;42236;48.058;10.632;2023-09-19T12:09:44;94784.25;;;21.37;61.57
56330;BME280;42236;48.058;10.632;2023-09-19T12:12:33;94780.81;;;21.26;61.27
56330;BME280;42236;48.058;10.632;2023-09-19T12:15:23;94786.72;;;21.24;59.50
56330;BME280;42236;48.058;10.632;2023-09-19T12:18:29;94778.06;;;21.29;59.48
56330;BME280;42236;48.058;10.632;2023-09-19T12:21:41;94778.00;;;21.37;57.93
56330;BME280;42236;48.058;10.632;2023-09-19T12:24:27;94775.59;;;21.46;60.88
56330;BME280;42236;48.058;10.632;2023-09-19T12:27:15;94775.59;;;21.46;60.16
56330;BME280;42236;48.058;10.632;2023-09-19T12:30:01;94774.06;;;21.38;60.22
56330;BME280;42236;48.058;10.632;2023-09-19T12:32:51;94767.09;;;21.29;60.89
56330;BME280;42236;48.058;10.632;2023-09-19T12:35:37;94769.88;;;21.22;60.87
56330;BME280;42236;48.058;10.632;2023-09-19T12:38:25;94768.75;;;21.20;60.32
56330;BME280;42236;48.058;10.632;2023-09-19T12:41:18;94761.59;;;21.26;60.71
56330;BME280;42236;48.058;10.632;2023-09-19T12:44:04;94771.81;;;21.25;60.32
56330;BME280;42236;48.058;10.632;2023-09-19T12:46:54;94760.00;;;21.32;60.67
56330;BME280;42236;48.058;10.632;2023-09-19T12:52:52;94771.31;;;21.41;60.92
56330;BME280;42236;48.058;10.632;2023-09-19T12:55:38;94765.69;;;21.56;61.63
56330;BME280;42236;48.058;10.632;2023-09-19T12:58:24;94762.06;;;21.62;61.58
56330;BME280;42236;48.058;10.632;2023-09-19T13:01:14;94769.91;;;21.64;60.35
56330;BME280;42236;48.058;10.632;2023-09-19T13:04:16;94763.63;;;21.63;58.07
56330;BME280;42236;48.058;10.632;2023-09-19T13:07:05;94762.44;;;21.64;59.94
56330;BME280;42236;48.058;10.632;2023-09-19T13:10:03;94758.97;;;21.60;59.44
56330;BME280;42236;48.058;10.632;2023-09-19T13:12:54;94757.38;;;21.63;59.70
56330;BME280;42236;48.058;10.632;2023-09-19T13:15:51;94762.50;;;21.61;58.61
56330;BME280;42236;48.058;10.632;2023-09-19T13:18:50;94763.25;;;21.61;57.73
56330;BME280;42236;48.058;10.632;2023-09-19T13:21:38;94755.78;;;21.65;59.56
56330;BME280;42236;48.058;10.632;2023-09-19T13:24:31;94749.91;;;21.63;58.76
56330;BME280;42236;48.058;10.632;2023-09-19T13:27:20;94747.91;;;21.67;59.17
56330;BME280;42236;48.058;10.632;2023-09-19T13:30:06;94741.66;;;21.63;59.51
56330;BME280;42236;48.058;10.632;2023-09-19T13:33:06;94750.81;;;21.53;56.21
56330;BME280;42236;48.058;10.632;2023-09-19T13:35:52;94746.13;;;21.50;59.36
56330;BME280;42236;48.058;10.632;2023-09-19T13:38:40;94742.66;;;21.42;59.42
56330;BME280;42236;48.058;10.632;2023-09-19T13:41:28;94735.63;;;21.38;58.64
56330;BME280;42236;48.058;10.632;2023-09-19T13:44:14;94738.06;;;21.28;59.07
56330;BME280;42236;48.058;10.632;2023-09-19T13:47:01;94738.06;;;21.28;59.42
56330;BME280;42236;48.058;10.632;2023-09-19T13:49:47;94735.75;;;21.27;58.76
56330;BME280;42236;48.058;10.632;2023-09-19T13:52:36;94724.72;;;21.30;58.93
56330;BME280;42236;48.058;10.632;2023-09-19T13:55:21;94733.03;;;21.23;58.60
56330;BME280;42236;48.058;10.632;2023-09-19T13:58:07;94732.28;;;21.19;58.30
56330;BME280;42236;48.058;10.632;2023-09-19T14:00:56;94721.84;;;21.07;58.05
56330;BME280;42236;48.058;10.632;2023-09-19T14:03:43;94725.41;;;21.00;58.63
56330;BME280;42236;48.058;10.632;2023-09-19T14:06:32;94724.63;;;21.00;59.15
56330;BME280;42236;48.058;10.632;2023-09-19T14:09:18;94725.78;;;21.02;59.88
56330;BME280;42236;48.058;10.632;2023-09-19T14:12:05;94717.88;;;21.08;59.48
56330;BME280;42236;48.058;10.632;2023-09-19T14:14:51;94724.13;;;21.12;59.44
56330;BME280;42236;48.058;10.632;2023-09-19T14:17:38;94715.53;;;21.10;59.02
56330;BME280;42236;48.058;10.632;2023-09-19T14:20:23;94722.22;;;21.05;59.71
56330;BME280;42236;48.058;10.632;2023-09-19T14:23:09;94719.94;;;20.97;59.64
56330;BME280;42236;48.058;10.632;2023-09-19T14:25:55;94724.66;;;20.96;59.85
56330;BME280;42236;48.058;10.632;2023-09-19T14:28:40;94719.50;;;21.02;60.29
56330;BME280;42236;48.058;10.632;2023-09-19T14:31:26;94719.81;;;21.11;60.15
56330;BME280;42236;48.058;10.632;2023-09-19T14:34:13;94712.66;;;21.24;60.06
56330;BME280;42236;48.058;10.632;2023-09-19T14:37:00;94718.06;;;21.31;60.00
56330;BME280;42236;48.058;10.632;2023-09-19T14:39:46;94713.28;;;21.36;60.11
56330;BME280;42236;48.058;10.632;2023-09-19T14:42:31;94714.44;;;21.38;59.43
56330;BME280;42236;48.058;10.632;2023-09-19T14:45:17;94705.81;;;21.43;59.84
56330;BME280;42236;48.058;10.632;2023-09-19T14:48:03;94712.84;;;21.44;60.01
56330;BME280;42236;48.058;10.632;2023-09-19T14:50:50;94708.13;;;21.48;59.91
56330;BME280;42236;48.058;10.632;2023-09-19T14:53:37;94701.47;;;21.46;60.15
56330;BME280;42236;48.058;10.632;2023-09-19T14:56:25;94700.78;;;21.31;60.71
56330;BME280;42236;48.058;10.632;2023-09-19T14:59:11;94696.91;;;21.28;60.65